createdAt,value
2018-12-03T00:01:57.756Z,66.45
2018-12-03T00:04:26.004Z,66.44
2018-12-03T00:06:54.264Z,65.95
2018-12-03T00:09:22.363Z,65.99
2018-12-03T00:11:50.496Z,66.12
2018-12-03T00:14:18.734Z,66.05
2018-12-03T00:16:46.909Z,66.60
2018-12-03T00:19:21.684Z,66.72
2018-12-03T00:21:49.925Z,67.05
2018-12-03T00:24:18.072Z,67.20
2018-12-03T00:26:46.237Z,66.73
2018-12-03T00:29:14.377Z,66.77
2018-12-03T00:31:42.585Z,66.85
2018-12-03T00:34:10.889Z,67.35
2018-12-03T00:36:39.048Z,66.96
2018-12-03T00:39:08.417Z,67.30
2018-12-03T00:41:36.928Z,66.91
2018-12-03T00:44:05.661Z,66.89
2018-12-03T00:46:33.891Z,67.41
2018-12-03T00:49:02.033Z,67.59
2018-12-03T00:51:30.168Z,67.17
2018-12-03T00:53:58.324Z,67.72
2018-12-03T00:56:26.488Z,67.44
2018-12-03T00:58:54.780Z,67.70
2018-12-03T01:01:22.957Z,67.89
2018-12-03T01:03:51.099Z,67.50
2018-12-03T01:06:19.291Z,68.08
2018-12-03T01:08:47.478Z,67.50
2018-12-03T01:11:15.608Z,67.49
2018-12-03T01:13:43.745Z,67.76
2018-12-03T01:16:11.885Z,67.71
2018-12-03T01:18:40.021Z,67.95
2018-12-03T01:21:08.170Z,68.16
2018-12-03T01:23:36.296Z,68.09
2018-12-03T01:26:04.512Z,68.64
2018-12-03T01:28:32.645Z,68.46
2018-12-03T01:31:00.797Z,68.77
2018-12-03T01:33:29.021Z,68.78
2018-12-03T01:35:57.161Z,68.46
2018-12-03T01:38:25.296Z,68.30
2018-12-03T01:40:53.468Z,68.66
2018-12-03T01:43:21.592Z,68.09
2018-12-03T01:45:49.740Z,68.51
2018-12-03T01:48:17.877Z,68.59
2018-12-03T01:50:46.045Z,68.25
2018-12-03T01:53:14.180Z,67.76
2018-12-03T01:55:42.388Z,67.37
2018-12-03T01:58:10.521Z,67.79
2018-12-03T02:00:38.736Z,67.28
2018-12-03T02:03:06.901Z,67.34
2018-12-03T02:05:35.049Z,66.95
2018-12-03T02:08:03.251Z,67.05
2018-12-03T02:10:31.460Z,67.92
2018-12-03T02:12:59.609Z,67.58
2018-12-03T02:15:27.804Z,67.57
2018-12-03T02:17:55.947Z,67.00
2018-12-03T02:20:24.074Z,67.16
2018-12-03T02:22:52.229Z,66.53
2018-12-03T02:25:20.375Z,66.61
2018-12-03T02:27:48.560Z,66.73
2018-12-03T02:30:17.498Z,66.25
2018-12-03T02:32:45.638Z,66.24
2018-12-03T02:35:14.668Z,66.18
2018-12-03T02:37:42.912Z,66.12
2018-12-03T02:40:17.521Z,66.48
2018-12-03T02:42:45.674Z,66.25
2018-12-03T02:45:14.536Z,66.37
2018-12-03T02:47:42.789Z,66.51
2018-12-03T02:50:13.140Z,65.81
2018-12-03T02:52:41.405Z,66.10
2018-12-03T02:55:10.600Z,65.99
2018-12-03T02:57:38.900Z,66.04
2018-12-03T03:00:10.311Z,65.99
2018-12-03T03:02:38.473Z,66.41
2018-12-03T03:05:09.768Z,66.53
2018-12-03T03:07:38.029Z,66.38
2018-12-03T03:10:09.212Z,66.38
2018-12-03T03:12:37.353Z,66.48
2018-12-03T03:15:07.880Z,66.07
2018-12-03T03:17:36.025Z,66.48
2018-12-03T03:20:04.161Z,66.64
2018-12-03T03:22:32.373Z,66.28
2018-12-03T03:25:00.589Z,66.71
2018-12-03T03:27:28.821Z,66.86
2018-12-03T03:29:56.985Z,66.53
2018-12-03T03:32:25.175Z,66.88
2018-12-03T03:34:53.441Z,66.42
2018-12-03T03:37:21.577Z,66.57
2018-12-03T03:39:49.729Z,67.04
2018-12-03T03:42:17.961Z,66.64
2018-12-03T03:44:46.157Z,66.80
2018-12-03T03:47:14.310Z,67.21
2018-12-03T03:49:42.454Z,67.41
2018-12-03T03:52:10.662Z,66.97
2018-12-03T03:54:38.861Z,67.36
2018-12-03T03:57:07.121Z,66.95
2018-12-03T03:59:35.318Z,67.10
2018-12-03T04:02:03.455Z,67.08
2018-12-03T04:04:31.605Z,67.69
2018-12-03T04:06:59.812Z,66.79
2018-12-03T04:09:28.000Z,67.70
2018-12-03T04:11:56.170Z,67.17
2018-12-03T04:14:24.370Z,67.15
2018-12-03T04:16:52.612Z,67.40
2018-12-03T04:19:20.757Z,67.55
2018-12-03T04:21:48.980Z,67.78
2018-12-03T04:24:17.153Z,67.53
2018-12-03T04:26:45.311Z,67.42
2018-12-03T04:29:13.453Z,67.67
2018-12-03T04:31:41.662Z,67.70
2018-12-03T04:34:09.859Z,68.07
2018-12-03T04:36:38.014Z,68.23
2018-12-03T04:39:07.816Z,68.13
2018-12-03T04:41:36.085Z,68.54
2018-12-03T04:44:04.579Z,68.65
2018-12-03T04:46:33.173Z,68.82
2018-12-03T04:49:01.465Z,68.69
2018-12-03T04:51:29.632Z,69.40
2018-12-03T04:53:57.824Z,69.09
2018-12-03T04:56:25.962Z,69.10
2018-12-03T04:58:54.173Z,69.57
2018-12-03T05:01:22.336Z,69.12
2018-12-03T05:03:50.644Z,69.67
2018-12-03T05:06:18.776Z,69.22
2018-12-03T05:08:47.062Z,69.73
2018-12-03T05:11:15.272Z,69.91
2018-12-03T05:13:43.421Z,70.39
2018-12-03T05:16:11.700Z,70.02
2018-12-03T05:18:39.847Z,70.04
2018-12-03T05:21:07.992Z,69.53
2018-12-03T05:23:36.192Z,69.75
2018-12-03T05:26:04.336Z,69.57
2018-12-03T05:28:32.545Z,69.78
2018-12-03T05:31:00.721Z,69.74
2018-12-03T05:33:28.882Z,69.51
2018-12-03T05:35:57.025Z,69.34
2018-12-03T05:38:25.234Z,69.48
2018-12-03T05:40:53.377Z,69.52
2018-12-03T05:43:21.586Z,69.38
2018-12-03T05:45:49.736Z,69.02
2018-12-03T05:48:17.885Z,69.36
2018-12-03T05:50:46.033Z,68.90
2018-12-03T05:53:14.170Z,68.89
2018-12-03T05:55:42.368Z,68.85
2018-12-03T05:58:10.511Z,69.11
2018-12-03T06:00:38.824Z,68.73
2018-12-03T06:03:06.992Z,68.75
2018-12-03T06:05:35.174Z,68.82
2018-12-03T06:08:03.342Z,69.21
2018-12-03T06:10:31.555Z,68.83
2018-12-03T06:12:59.688Z,68.95
2018-12-03T06:15:27.912Z,69.53
2018-12-03T06:17:56.050Z,69.16
2018-12-03T06:20:24.268Z,69.72
2018-12-03T06:22:53.600Z,69.66
2018-12-03T06:25:24.253Z,69.78
2018-12-03T06:27:52.445Z,69.39
2018-12-03T06:30:21.985Z,69.68
2018-12-03T06:32:50.428Z,69.93
2018-12-03T06:35:19.215Z,69.78
2018-12-03T06:37:47.765Z,70.07
2018-12-03T06:40:19.243Z,70.26
2018-12-03T06:42:47.417Z,70.30
2018-12-03T06:45:18.552Z,70.65
2018-12-03T06:48:03.319Z,70.48
2018-12-03T06:50:31.456Z,70.54
2018-12-03T06:52:59.692Z,70.89
2018-12-03T06:55:27.952Z,70.46
2018-12-03T06:57:56.138Z,71.04
2018-12-03T07:00:24.994Z,71.03
2018-12-03T07:02:53.144Z,70.75
2018-12-03T07:05:21.293Z,71.54
2018-12-03T07:07:51.101Z,71.16
2018-12-03T07:10:20.187Z,70.85
2018-12-03T07:12:52.632Z,70.77
2018-12-03T07:15:21.936Z,70.75
2018-12-03T07:17:51.540Z,71.15
2018-12-03T07:20:19.672Z,70.77
2018-12-03T07:22:47.821Z,71.22
2018-12-03T07:25:16.011Z,71.13
2018-12-03T07:27:44.169Z,70.81
2018-12-03T07:30:13.992Z,70.42
2018-12-03T07:32:42.256Z,70.33
2018-12-03T07:35:10.397Z,70.23
2018-12-03T07:37:38.622Z,70.26
2018-12-03T07:40:08.585Z,70.53
2018-12-03T07:42:36.905Z,70.03
2018-12-03T07:45:07.754Z,69.82
2018-12-03T07:47:35.929Z,70.11
2018-12-03T07:50:04.913Z,69.61
2018-12-03T07:52:33.081Z,70.00
2018-12-03T07:55:01.222Z,69.93
2018-12-03T07:57:29.361Z,70.01
2018-12-03T07:59:57.500Z,69.58
2018-12-03T08:02:25.712Z,70.03
2018-12-03T08:04:53.857Z,69.57
2018-12-03T08:07:22.016Z,70.06
2018-12-03T08:09:50.213Z,69.98
2018-12-03T08:12:18.376Z,69.92
2018-12-03T08:14:46.560Z,69.29
2018-12-03T08:17:14.704Z,69.32
2018-12-03T08:19:43.085Z,69.75
2018-12-03T08:22:12.656Z,69.04
2018-12-03T08:24:40.893Z,69.53
2018-12-03T08:27:09.056Z,69.90
2018-12-03T08:29:37.221Z,69.27
2018-12-03T08:32:05.580Z,69.93
2018-12-03T08:34:33.731Z,69.39
2018-12-03T08:37:01.865Z,69.39
2018-12-03T08:39:30.040Z,69.47
2018-12-03T08:41:58.205Z,70.00
2018-12-03T08:44:29.984Z,70.27
2018-12-03T08:46:59.445Z,70.05
2018-12-03T08:49:27.663Z,70.48
2018-12-03T08:51:55.801Z,70.13
2018-12-03T08:54:24.112Z,70.56
2018-12-03T08:56:52.281Z,70.60
2018-12-03T08:59:20.429Z,70.43
2018-12-03T09:01:48.629Z,70.51
2018-12-03T09:04:18.761Z,70.05
2018-12-03T09:06:47.017Z,69.98
2018-12-03T09:09:16.516Z,70.51
2018-12-03T09:11:47.345Z,70.40
2018-12-03T09:14:16.065Z,69.81
2018-12-03T09:16:44.232Z,69.72
2018-12-03T09:19:12.405Z,69.14
2018-12-03T09:21:40.594Z,69.17
2018-12-03T09:24:08.749Z,69.05
2018-12-03T09:26:40.424Z,68.71
2018-12-03T09:29:08.597Z,69.13
2018-12-03T09:31:36.776Z,68.59
2018-12-03T09:34:04.973Z,68.78
2018-12-03T09:36:33.124Z,69.43
2018-12-03T09:39:08.882Z,69.51
2018-12-03T09:41:37.277Z,69.50
2018-12-03T09:44:05.805Z,68.99
2018-12-03T09:46:33.957Z,68.71
2018-12-03T09:49:02.102Z,69.09
2018-12-03T09:51:31.262Z,68.40
2018-12-03T09:53:59.677Z,68.50
2018-12-03T09:56:31.509Z,68.45
2018-12-03T09:58:59.773Z,68.38
2018-12-03T10:01:27.993Z,68.19
2018-12-03T10:03:56.253Z,68.46
2018-12-03T10:06:24.547Z,68.36
2018-12-03T10:08:52.725Z,68.00
2018-12-03T10:11:20.908Z,67.79
2018-12-03T10:13:49.085Z,67.25
2018-12-03T10:16:17.338Z,67.68
2018-12-03T10:18:48.273Z,67.62
2018-12-03T10:21:16.462Z,67.09
2018-12-03T10:23:44.748Z,67.84
2018-12-03T10:26:14.043Z,67.80
2018-12-03T10:28:42.300Z,67.56
2018-12-03T10:31:13.760Z,67.29
2018-12-03T10:33:42.037Z,67.41
2018-12-03T10:36:10.941Z,66.89
2018-12-03T10:38:41.056Z,67.52
2018-12-03T10:41:17.530Z,67.20
2018-12-03T10:43:45.704Z,66.79
2018-12-03T10:46:13.892Z,67.16
2018-12-03T10:48:42.087Z,67.32
2018-12-03T10:51:14.344Z,67.36
2018-12-03T10:53:42.613Z,66.93
2018-12-03T10:56:10.892Z,67.05
2018-12-03T10:58:42.116Z,67.33
2018-12-03T11:01:15.781Z,66.46
2018-12-03T11:03:49.534Z,66.38
2018-12-03T11:06:18.885Z,65.72
2018-12-03T11:08:47.433Z,66.19
2018-12-03T11:11:15.692Z,65.62
2018-12-03T11:13:43.872Z,65.39
2018-12-03T11:16:21.768Z,65.94
2018-12-03T11:18:51.868Z,66.05
2018-12-03T11:21:20.060Z,65.60
2018-12-03T11:23:48.345Z,66.00
2018-12-03T11:26:16.526Z,65.10
2018-12-03T11:28:47.366Z,65.19
2018-12-03T11:31:22.070Z,65.00
2018-12-03T11:33:50.361Z,65.39
2018-12-03T11:36:24.437Z,65.05
2018-12-03T11:39:01.117Z,64.55
2018-12-03T11:41:29.520Z,64.15
2018-12-03T11:43:57.798Z,64.49
2018-12-03T11:46:25.985Z,64.62
2018-12-03T11:48:54.189Z,64.64
2018-12-03T11:51:22.401Z,65.09
2018-12-03T11:53:50.593Z,64.81
2018-12-03T11:56:18.877Z,64.59
2018-12-03T11:58:47.068Z,64.95
2018-12-03T12:01:15.331Z,64.79
2018-12-03T12:03:44.141Z,64.92
2018-12-03T12:06:12.393Z,65.42
2018-12-03T12:08:40.679Z,65.24
2018-12-03T12:11:08.924Z,64.61
2018-12-03T12:13:37.121Z,64.85
2018-12-03T12:16:05.916Z,64.27
2018-12-03T12:18:34.221Z,64.57
2018-12-03T12:21:02.510Z,64.65
2018-12-03T12:23:30.773Z,65.09
2018-12-03T12:25:59.021Z,64.99
2018-12-03T12:28:27.205Z,64.68
2018-12-03T12:30:55.469Z,64.81
2018-12-03T12:33:23.741Z,64.91
2018-12-03T12:35:52.041Z,64.56
2018-12-03T12:38:20.228Z,65.23
2018-12-03T12:40:48.473Z,64.83
2018-12-03T12:43:16.748Z,65.05
2018-12-03T12:45:53.597Z,64.68
2018-12-03T12:48:21.793Z,65.37
2018-12-03T12:50:49.993Z,64.89
2018-12-03T12:53:18.169Z,65.03
2018-12-03T12:55:46.433Z,64.80
2018-12-03T12:58:14.698Z,65.15
2018-12-03T13:00:42.997Z,65.75
2018-12-03T13:03:11.272Z,65.95
2018-12-03T13:05:39.581Z,66.92
2018-12-03T13:08:08.945Z,66.59
2018-12-03T13:10:37.377Z,67.13
2018-12-03T13:13:05.788Z,66.72
2018-12-03T13:15:34.045Z,66.57
2018-12-03T13:18:03.853Z,66.82
2018-12-03T13:20:32.005Z,67.18
2018-12-03T13:23:00.229Z,67.29
2018-12-03T13:25:28.385Z,67.60
2018-12-03T13:27:56.528Z,67.52
2018-12-03T13:30:24.689Z,68.09
2018-12-03T13:32:52.857Z,67.73
2018-12-03T13:35:21.020Z,67.89
2018-12-03T13:37:49.177Z,68.34
2018-12-03T13:40:17.844Z,68.63
2018-12-03T13:42:47.061Z,68.73
2018-12-03T13:45:18.356Z,68.88
2018-12-03T13:47:46.806Z,68.74
2018-12-03T13:50:16.165Z,68.47
2018-12-03T13:52:44.976Z,68.71
2018-12-03T13:55:16.713Z,68.98
2018-12-03T13:57:44.881Z,69.14
2018-12-03T14:00:19.321Z,69.31
2018-12-03T14:02:50.305Z,69.35
2018-12-03T14:05:18.973Z,70.00
2018-12-03T14:07:54.317Z,69.95
2018-12-03T14:10:59.457Z,69.65
2018-12-03T14:14:09.984Z,69.90
2018-12-03T14:16:46.060Z,70.10
2018-12-03T14:19:18.013Z,70.15
2018-12-03T14:21:50.197Z,70.25
2018-12-03T14:24:20.696Z,69.62
2018-12-03T14:26:49.058Z,69.97
2018-12-03T14:29:17.200Z,70.10
2018-12-03T14:31:45.402Z,69.64
2018-12-03T14:34:18.225Z,69.47
2018-12-03T14:36:46.454Z,69.37
2018-12-03T14:39:14.641Z,69.63
2018-12-03T14:41:42.895Z,70.00
2018-12-03T14:44:11.265Z,69.98
2018-12-03T14:46:39.449Z,69.42
2018-12-03T14:49:07.644Z,69.83
2018-12-03T14:51:35.776Z,69.93
2018-12-03T14:54:03.987Z,69.91
2018-12-03T14:56:32.168Z,69.85
2018-12-03T14:59:00.425Z,69.80
2018-12-03T15:01:28.660Z,69.37
2018-12-03T15:03:56.884Z,69.29
2018-12-03T15:06:25.025Z,69.69
2018-12-03T15:08:53.633Z,69.58
2018-12-03T15:11:21.825Z,69.28
2018-12-03T15:13:50.014Z,69.37
2018-12-03T15:16:18.173Z,68.99
2018-12-03T15:18:46.328Z,69.46
2018-12-03T15:21:14.481Z,69.55
2018-12-03T15:23:42.689Z,69.03
2018-12-03T15:26:10.833Z,69.16
2018-12-03T15:28:39.028Z,69.31
2018-12-03T15:31:07.208Z,69.59
2018-12-03T15:33:35.497Z,70.23
2018-12-03T15:36:03.660Z,69.56
2018-12-03T15:38:31.817Z,69.52
2018-12-03T15:41:00.005Z,69.99
2018-12-03T15:43:28.281Z,69.92
2018-12-03T15:45:56.429Z,69.52
2018-12-03T15:48:24.613Z,69.49
2018-12-03T15:50:52.768Z,69.86
2018-12-03T15:53:21.344Z,69.98
2018-12-03T15:55:50.040Z,70.00
2018-12-03T15:58:18.246Z,69.70
2018-12-03T16:00:46.413Z,69.32
2018-12-03T16:03:14.629Z,69.53
2018-12-03T16:05:42.790Z,69.65
2018-12-03T16:08:10.955Z,69.78
2018-12-03T16:10:39.134Z,69.97
2018-12-03T16:13:07.308Z,69.88
2018-12-03T16:15:35.489Z,69.71
2018-12-03T16:18:03.661Z,70.29
2018-12-03T16:20:31.857Z,70.26
2018-12-03T16:23:00.117Z,70.27
2018-12-03T16:25:28.317Z,70.44
2018-12-03T16:27:56.474Z,70.72
2018-12-03T16:30:25.234Z,71.38
2018-12-03T16:32:54.501Z,70.95
2018-12-03T16:35:22.654Z,71.04
2018-12-03T16:37:50.793Z,71.85
2018-12-03T16:40:19.029Z,71.83
2018-12-03T16:42:47.144Z,71.23
2018-12-03T16:45:15.444Z,71.65
2018-12-03T16:47:43.596Z,71.29
2018-12-03T16:50:11.790Z,71.52
2018-12-03T16:52:39.953Z,71.41
2018-12-03T16:55:08.130Z,71.46
2018-12-03T16:57:36.299Z,71.18
2018-12-03T17:00:08.293Z,71.28
2018-12-03T17:02:36.436Z,71.57
2018-12-03T17:05:04.729Z,72.49
2018-12-03T17:07:32.880Z,72.98
2018-12-03T17:10:01.028Z,73.19
2018-12-03T17:12:30.037Z,73.67
2018-12-03T17:14:58.185Z,73.69
2018-12-03T17:17:26.533Z,74.23
2018-12-03T17:19:54.684Z,74.38
2018-12-03T17:22:34.641Z,74.62
2018-12-03T17:25:03.384Z,74.54
2018-12-03T17:27:31.606Z,75.25
2018-12-03T17:29:59.766Z,75.19
2018-12-03T17:32:28.056Z,74.71
2018-12-03T17:34:56.217Z,74.35
2018-12-03T17:37:24.373Z,74.67
2018-12-03T17:39:52.576Z,74.53
2018-12-03T17:42:20.731Z,73.94
2018-12-03T17:44:48.872Z,74.02
2018-12-03T17:47:17.113Z,73.96
2018-12-03T17:49:45.400Z,74.17
2018-12-03T17:52:13.660Z,74.55
2018-12-03T17:54:41.824Z,74.49
2018-12-03T17:57:10.006Z,74.47
2018-12-03T17:59:38.152Z,74.26
2018-12-03T18:02:06.361Z,73.76
2018-12-03T18:04:34.620Z,73.69
2018-12-03T18:07:02.805Z,73.48
2018-12-03T18:09:31.080Z,73.86
2018-12-03T18:11:59.268Z,73.85
2018-12-03T18:14:27.425Z,73.39
2018-12-03T18:16:55.573Z,74.11
2018-12-03T18:19:23.876Z,73.71
2018-12-03T18:21:52.040Z,74.46
2018-12-03T18:24:21.920Z,74.04
2018-12-03T18:26:50.112Z,73.71
2018-12-03T18:29:18.260Z,73.56
2018-12-03T18:31:46.418Z,74.31
2018-12-03T18:34:14.688Z,74.42
2018-12-03T18:36:42.832Z,74.24
2018-12-03T18:39:11.145Z,75.11
2018-12-03T18:41:39.309Z,74.85
2018-12-03T18:44:07.492Z,74.29
2018-12-03T18:46:35.629Z,74.55
2018-12-03T18:49:08.245Z,74.66
2018-12-03T18:51:36.429Z,74.30
2018-12-03T18:54:04.805Z,74.37
2018-12-03T18:56:32.953Z,74.85
2018-12-03T18:59:03.264Z,74.25
2018-12-03T19:01:31.570Z,74.03
2018-12-03T19:04:00.021Z,74.18
2018-12-03T19:06:28.801Z,73.65
2018-12-03T19:08:57.117Z,74.11
2018-12-03T19:11:25.502Z,73.98
2018-12-03T19:13:54.153Z,74.42
2018-12-03T19:16:22.457Z,74.40
2018-12-03T19:18:50.802Z,74.34
2018-12-03T19:21:18.970Z,75.02
2018-12-03T19:23:47.299Z,74.75
2018-12-03T19:26:15.449Z,74.82
2018-12-03T19:28:43.890Z,74.54
2018-12-03T19:31:43.140Z,74.83
2018-12-03T19:34:11.324Z,74.43
2018-12-03T19:36:39.516Z,74.33
2018-12-03T19:39:08.089Z,74.40
2018-12-03T19:41:36.243Z,74.11
2018-12-03T19:44:04.644Z,73.98
2018-12-03T19:46:32.814Z,74.00
2018-12-03T19:49:01.600Z,74.15
2018-12-03T19:51:29.877Z,73.59
2018-12-03T19:53:58.457Z,73.75
2018-12-03T19:56:26.870Z,73.45
2018-12-03T19:58:55.937Z,73.86
2018-12-03T20:01:24.105Z,73.59
2018-12-03T20:03:52.300Z,74.00
2018-12-03T20:06:20.557Z,73.71
2018-12-03T20:08:48.732Z,73.28
2018-12-03T20:11:17.220Z,73.29
2018-12-03T20:13:45.585Z,73.72
2018-12-03T20:16:13.883Z,73.06
2018-12-03T20:18:42.181Z,73.26
2018-12-03T20:21:13.613Z,73.90
2018-12-03T20:23:45.969Z,73.45
2018-12-03T20:26:30.598Z,73.60
2018-12-03T20:29:13.792Z,73.49
2018-12-03T20:31:53.981Z,73.50
2018-12-03T20:34:32.861Z,73.69
2018-12-03T20:37:16.411Z,74.02
2018-12-03T20:39:54.892Z,73.54
2018-12-03T20:42:25.705Z,74.08
2018-12-03T20:45:17.171Z,73.86
2018-12-03T20:47:48.601Z,74.00
2018-12-03T20:50:23.933Z,73.62
2018-12-03T20:52:52.580Z,73.54
2018-12-03T20:55:27.440Z,73.93
2018-12-03T20:57:55.749Z,73.57
2018-12-03T21:00:24.241Z,74.03
2018-12-03T21:02:55.857Z,73.92
2018-12-03T21:05:24.177Z,73.74
2018-12-03T21:07:52.420Z,73.67
2018-12-03T21:10:20.621Z,73.22
2018-12-03T21:12:48.776Z,73.18
2018-12-03T21:15:16.953Z,73.44
2018-12-03T21:17:45.136Z,72.99
2018-12-03T21:20:20.881Z,73.27
2018-12-03T21:22:49.064Z,73.45
2018-12-03T21:25:17.299Z,73.48
2018-12-03T21:27:45.521Z,73.08
2018-12-03T21:30:13.803Z,73.07
2018-12-03T21:32:41.956Z,73.05
2018-12-03T21:35:10.241Z,72.82
2018-12-03T21:37:38.420Z,72.88
2018-12-03T21:40:08.229Z,72.74
2018-12-03T21:42:36.760Z,73.41
2018-12-03T21:45:06.254Z,72.80
2018-12-03T21:47:34.540Z,72.95
2018-12-03T21:50:05.841Z,72.84
2018-12-03T21:52:33.128Z,73.07
2018-12-03T21:55:02.230Z,73.38
2018-12-03T21:57:31.004Z,73.13
2018-12-03T21:59:59.357Z,73.02
2018-12-03T22:02:27.590Z,72.79
2018-12-03T22:04:55.828Z,72.44
2018-12-03T22:07:24.216Z,72.38
2018-12-03T22:09:52.919Z,72.55
2018-12-03T22:12:21.277Z,72.74
2018-12-03T22:14:49.445Z,72.35
2018-12-03T22:17:18.053Z,72.86
2018-12-03T22:19:46.205Z,72.33
2018-12-03T22:22:14.510Z,72.29
2018-12-03T22:24:42.970Z,72.73
2018-12-03T22:27:11.240Z,72.28
2018-12-03T22:29:39.648Z,72.18
2018-12-03T22:32:08.009Z,72.19
2018-12-03T22:34:36.173Z,72.29
2018-12-03T22:37:04.456Z,72.07
2018-12-03T22:39:32.613Z,72.39
2018-12-03T22:42:00.916Z,72.06
2018-12-03T22:44:29.171Z,72.34
2018-12-03T22:46:57.345Z,72.33
2018-12-03T22:49:25.542Z,72.41
2018-12-03T22:51:53.696Z,71.98
2018-12-03T22:54:21.890Z,72.08
2018-12-03T22:56:50.493Z,71.98
2018-12-03T22:59:18.757Z,71.75
2018-12-03T23:01:47.025Z,71.83
2018-12-03T23:04:15.200Z,71.91
2018-12-03T23:06:43.477Z,71.96
2018-12-03T23:09:11.657Z,71.85
2018-12-03T23:11:39.888Z,72.43
2018-12-03T23:14:08.226Z,72.30
2018-12-03T23:16:36.368Z,71.84
2018-12-03T23:19:04.669Z,71.69
2018-12-03T23:21:32.924Z,71.72
2018-12-03T23:24:01.245Z,71.73
2018-12-03T23:26:29.576Z,71.79
2018-12-03T23:28:57.733Z,72.31
2018-12-03T23:31:25.924Z,72.19
2018-12-03T23:33:54.113Z,71.76
2018-12-03T23:36:22.497Z,71.73
2018-12-03T23:38:50.672Z,72.20
2018-12-03T23:41:19.034Z,72.12
2018-12-03T23:43:47.341Z,72.12
2018-12-03T23:46:15.594Z,71.91
2018-12-03T23:48:43.784Z,71.72
2018-12-03T23:51:15.321Z,71.86
2018-12-03T23:53:43.504Z,72.17
2018-12-03T23:56:11.777Z,72.26
2018-12-03T23:58:39.945Z,71.99
